Wetterdaten: Woche 23.01.12 - 29.01.12 (KW4)
Datum Zeit Temp. A. Feuchte A. Luftdruck Regen Wind Richtung Taupunkt Windchill Windben
23.01.2012 00:00 8,4 C 64 % 1006,2 hPa 0,0 l/m 18,6 km/h N 2,0 C 1,7 C 52,7 km/h
23.01.2012 01:00 8,2 C 65 % 1006,5 hPa 0,0 l/m 18,4 km/h N 2,0 C 1,6 C 47,5 km/h
23.01.2012 02:00 8,5 C 62 % 1007,1 hPa 0,0 l/m 22,8 km/h N 1,6 C 0,4 C 52,3 km/h
23.01.2012 03:00 8,4 C 61 % 1007,7 hPa 0,0 l/m 23,8 km/h N 1,2 C 0,0 C 52,3 km/h
23.01.2012 04:00 7,2 C 70 % 1008,6 hPa 0,3 l/m 22,7 km/h N 2,1 C -1,3 C 47,1 km/h
23.01.2012 05:00 6,8 C 68 % 1009,6 hPa 0,0 l/m 21,0 km/h N 1,4 C -1,1 C 45,8 km/h
23.01.2012 06:00 6,5 C 65 % 1010,8 hPa 0,0 l/m 16,3 km/h N 0,4 C 0,3 C 37,0 km/h
23.01.2012 07:00 5,9 C 67 % 1011,8 hPa 0,0 l/m 12,2 km/h N 0,3 C 1,7 C 31,8 km/h
23.01.2012 08:00 6,1 C 66 % 1012,5 hPa 0,0 l/m 11,7 km/h W 0,2 C 2,2 C 31,8 km/h
23.01.2012 09:00 6,7 C 64 % 1012,4 hPa 0,0 l/m 16,7 km/h N 0,3 C 0,3 C 38,6 km/h
23.01.2012 10:00 7,1 C 61 % 1012,6 hPa 0,0 l/m 16,1 km/h N 0,1 C 1,1 C 36,2 km/h
23.01.2012 11:00 7,7 C 57 % 1013,1 hPa 0,0 l/m 17,4 km/h N -0,3 C 1,4 C 38,6 km/h
23.01.2012 12:00 7,6 C 60 % 1013,6 hPa 0,0 l/m 9,8 km/h N 0,3 C 5,2 C 27,0 km/h
23.01.2012 13:00 7,2 C 63 % 1013,7 hPa 0,0 l/m 8,6 km/h N 0,6 C 5,5 C 24,1 km/h
23.01.2012 14:00 7,3 C 63 % 1013,6 hPa 0,0 l/m 7,9 km/h N 0,7 C 6,1 C 24,1 km/h
23.01.2012 15:00 6,8 C 65 % 1013,8 hPa 0,0 l/m 7,4 km/h N 0,7 C 6,0 C 22,5 km/h
23.01.2012 16:00 6,1 C 69 % 1014,1 hPa 0,0 l/m 7,1 km/h N 0,8 C 5,5 C 21,3 km/h
23.01.2012 17:00 5,8 C 71 % 1014,2 hPa 0,0 l/m 6,6 km/h N 1,0 C 5,4 C 21,3 km/h
23.01.2012 18:00 5,6 C 73 % 1014,2 hPa 0,0 l/m 5,8 km/h W 1,1 C 5,6 C 20,1 km/h
23.01.2012 19:00 5,4 C 74 % 1014,4 hPa 0,0 l/m 6,1 km/h S-SW 1,2 C 5,3 C 18,9 km/h
23.01.2012 20:00 5,0 C 78 % 1014,3 hPa 0,0 l/m 6,2 km/h W-SW 1,4 C 4,8 C 22,5 km/h
23.01.2012 21:00 5,0 C 76 % 1014,4 hPa 0,0 l/m 7,9 km/h W-SW 1,2 C 3,7 C 20,9 km/h
23.01.2012 22:00 5,1 C 74 % 1014,3 hPa 0,0 l/m 7,8 km/h W 0,7 C 3,9 C 22,9 km/h
23.01.2012 23:00 5,1 C 73 % 1014,0 hPa 0,0 l/m 7,4 km/h W 0,6 C 4,1 C 21,7 km/h
24.01.2012 00:00 5,2 C 71 % 1013,8 hPa 0,0 l/m 6,6 km/h W 0,4 C 4,7 C 20,5 km/h
24.01.2012 01:00 5,3 C 72 % 1014,0 hPa 0,0 l/m 7,0 km/h W 0,7 C 3,9 C 22,5 km/h
24.01.2012 02:00 3,8 C 81 % 1014,3 hPa 0,8 l/m 4,5 km/h N-NW 0,9 C 3,4 C 11,3 km/h
24.01.2012 03:00 2,7 C 84 % 1014,1 hPa 0,3 l/m 1,4 km/h N-NW 0,2 C 2,7 C 5,6 km/h
24.01.2012 04:00 2,1 C 84 % 1014,6 hPa 0,5 l/m 1,7 km/h N -0,3 C 2,1 C 5,7 km/h
24.01.2012 05:00 1,5 C 84 % 1014,7 hPa 0,5 l/m 2,3 km/h N -1,0 C 1,5 C 7,3 km/h
24.01.2012 06:00 1,1 C 84 % 1014,5 hPa 0,0 l/m 0,1 km/h N -1,4 C 1,1 C 2,8 km/h
24.01.2012 07:00 0,0 C 84 % 1014,7 hPa 0,0 l/m 0,0 km/h N -2,3 C 0,0 C 0,8 km/h
24.01.2012 08:00 0,0 C 83 % 1015,2 hPa 0,0 l/m 0,0 km/h N -2,5 C 0,0 C 0,0 km/h
24.01.2012 09:00 1,2 C 82 % 1015,5 hPa 0,3 l/m 1,1 km/h W-NW -1,6 C 1,2 C 5,2 km/h
24.01.2012 10:00 2,0 C 82 % 1016,0 hPa 0,0 l/m 4,6 km/h W-NW -0,7 C 2,0 C 12,5 km/h
24.01.2012 11:00 2,9 C 83 % 1016,3 hPa 0,0 l/m 8,2 km/h W-NW 0,3 C 1,3 C 19,3 km/h
24.01.2012 12:00 4,1 C 82 % 1016,1 hPa 0,0 l/m 10,6 km/h NW 1,2 C 0,7 C 25,8 km/h
24.01.2012 13:00 4,8 C 75 % 1015,9 hPa 0,0 l/m 12,5 km/h W-NW 0,7 C 0,2 C 26,5 km/h
24.01.2012 14:00 4,5 C 71 % 1016,2 hPa 0,0 l/m 12,1 km/h W-NW -0,3 C 0,2 C 25,7 km/h
24.01.2012 15:00 4,1 C 74 % 1016,3 hPa 0,0 l/m 12,4 km/h N -0,1 C -0,5 C 27,0 km/h
24.01.2012 16:00 2,8 C 81 % 1017,0 hPa 0,5 l/m 10,8 km/h W-NW -0,1 C -0,9 C 23,7 km/h
24.01.2012 17:00 2,5 C 84 % 1017,5 hPa 0,0 l/m 8,7 km/h W-NW 0,0 C 0,4 C 20,5 km/h
24.01.2012 18:00 2,7 C 83 % 1017,9 hPa 0,0 l/m 10,3 km/h W-NW 0,0 C -0,7 C 24,1 km/h
24.01.2012 19:00 2,4 C 83 % 1018,7 hPa 0,0 l/m 10,8 km/h W-NW -0,3 C -1,4 C 23,7 km/h
24.01.2012 20:00 2,1 C 80 % 1019,4 hPa 0,0 l/m 8,6 km/h W-NW -1,0 C 0,1 C 20,9 km/h
24.01.2012 21:00 1,9 C 79 % 1019,9 hPa 0,0 l/m 6,6 km/h NW -1,3 C 1,6 C 16,5 km/h
24.01.2012 22:00 1,6 C 80 % 1020,1 hPa 0,0 l/m 5,0 km/h W-NW -1,4 C 1,6 C 10,9 km/h
24.01.2012 23:00 1,4 C 83 % 1020,2 hPa 0,0 l/m 6,1 km/h NW -1,1 C 1,2 C 14,5 km/h
25.01.2012 00:00 1,2 C 84 % 1020,3 hPa 0,0 l/m 5,3 km/h NW -1,3 C 1,2 C 15,7 km/h
25.01.2012 01:00 1,3 C 83 % 1020,5 hPa 0,0 l/m 6,8 km/h NW -1,4 C 0,6 C 16,9 km/h
25.01.2012 02:00 1,0 C 81 % 1021,0 hPa 0,0 l/m 8,1 km/h NW -1,9 C -0,7 C 18,5 km/h
25.01.2012 03:00 0,3 C 81 % 1021,3 hPa 0,0 l/m 4,8 km/h N-NW -2,5 C 0,2 C 14,9 km/h
25.01.2012 04:00 -0,4 C 81 % 1021,4 hPa 0,0 l/m 6,3 km/h NO -3,3 C -0,5 C 18,1 km/h
25.01.2012 05:00 -0,5 C 79 % 1021,8 hPa 0,0 l/m 4,1 km/h NW -3,7 C -0,5 C 12,5 km/h
25.01.2012 06:00 -1,0 C 78 % 1022,2 hPa 0,0 l/m 1,1 km/h NW -4,3 C -1,0 C 7,6 km/h
25.01.2012 07:00 -1,1 C 76 % 1022,7 hPa 0,0 l/m 3,9 km/h W -4,9 C -1,1 C 12,1 km/h
25.01.2012 08:00 -0,8 C 74 % 1023,3 hPa 0,0 l/m 5,3 km/h W-NW -4,8 C -0,8 C 15,3 km/h
25.01.2012 09:00 0,3 C 72 % 1023,4 hPa 0,0 l/m 7,0 km/h N -4,2 C -0,4 C 17,3 km/h
25.01.2012 10:00 1,0 C 72 % 1023,5 hPa 0,0 l/m 6,6 km/h N-NW -3,5 C 0,7 C 15,3 km/h
25.01.2012 11:00 1,8 C 69 % 1023,2 hPa 0,0 l/m 7,3 km/h NW -3,3 C 0,9 C 18,5 km/h
25.01.2012 12:00 1,7 C 68 % 1022,9 hPa 0,0 l/m 10,0 km/h W-NW -3,6 C -1,6 C 21,7 km/h
25.01.2012 13:00 2,3 C 67 % 1022,5 hPa 0,0 l/m 11,5 km/h W -3,3 C -2,0 C 23,3 km/h
25.01.2012 14:00 1,8 C 64 % 1022,4 hPa 0,0 l/m 11,0 km/h W-NW -4,3 C -2,2 C 22,1 km/h
25.01.2012 15:00 1,1 C 66 % 1022,6 hPa 0,0 l/m 7,3 km/h NW -4,7 C -0,0 C 17,7 km/h
25.01.2012 16:00 0,6 C 68 % 1022,7 hPa 0,0 l/m 6,1 km/h NW -4,6 C 0,3 C 15,3 km/h
25.01.2012 17:00 0,2 C 71 % 1022,8 hPa 0,0 l/m 5,1 km/h W-NW -4,5 C 0,1 C 13,3 km/h
25.01.2012 18:00 -0,2 C 72 % 1023,3 hPa 0,0 l/m 5,0 km/h N -4,7 C -0,2 C 13,3 km/h
25.01.2012 19:00 -0,1 C 71 % 1023,6 hPa 0,0 l/m 6,2 km/h N -4,6 C -0,2 C 14,9 km/h
25.01.2012 20:00 -0,1 C 71 % 1023,7 hPa 0,0 l/m 6,5 km/h N -4,7 C -0,6 C 16,5 km/h
25.01.2012 21:00 -0,3 C 72 % 1023,7 hPa 0,0 l/m 5,1 km/h N -4,8 C -0,4 C 13,3 km/h
25.01.2012 22:00 -0,7 C 73 % 1023,8 hPa 0,0 l/m 4,9 km/h NW -4,9 C -0,8 C 12,9 km/h
25.01.2012 23:00 -1,3 C 76 % 1023,8 hPa 0,0 l/m 2,8 km/h NW -5,0 C -1,3 C 10,1 km/h
26.01.2012 00:00 -1,0 C 75 % 1023,4 hPa 0,0 l/m 5,0 km/h NW -4,9 C -1,0 C 12,9 km/h
26.01.2012 01:00 -0,9 C 74 % 1023,6 hPa 0,0 l/m 5,1 km/h W-NW -4,9 C -0,9 C 12,1 km/h
26.01.2012 02:00 -0,9 C 74 % 1023,5 hPa 0,0 l/m 4,0 km/h W-NW -5,0 C -0,9 C 11,7 km/h
26.01.2012 03:00 -1,0 C 74 % 1023,1 hPa 0,0 l/m 6,4 km/h W -5,1 C -1,6 C 14,9 km/h
26.01.2012 04:00 -1,4 C 73 % 1023,1 hPa 0,0 l/m 5,7 km/h W-NW -5,5 C -1,8 C 14,5 km/h
26.01.2012 05:00 -1,6 C 74 % 1023,5 hPa 0,0 l/m 4,5 km/h W-NW -5,6 C -1,6 C 11,3 km/h
26.01.2012 06:00 -1,8 C 75 % 1023,6 hPa 0,0 l/m 5,7 km/h NW -5,6 C -1,8 C 15,7 km/h
26.01.2012 07:00 -1,9 C 75 % 1023,7 hPa 0,0 l/m 5,1 km/h W-NW -5,7 C -1,9 C 13,7 km/h
26.01.2012 08:00 -1,9 C 75 % 1024,1 hPa 0,0 l/m 5,7 km/h NW -5,8 C -2,2 C 12,9 km/h
26.01.2012 09:00 -0,9 C 73 % 1024,1 hPa 0,0 l/m 8,4 km/h NW -5,3 C -3,0 C 19,3 km/h
26.01.2012 10:00 -0,5 C 70 % 1024,2 hPa 0,0 l/m 9,7 km/h W -5,3 C -3,7 C 22,5 km/h
26.01.2012 11:00 0,3 C 67 % 1024,0 hPa 0,0 l/m 9,1 km/h NW -5,2 C -2,4 C 20,9 km/h
26.01.2012 12:00 0,4 C 65 % 1023,7 hPa 0,0 l/m 8,9 km/h NW -5,4 C -2,1 C 20,5 km/h
26.01.2012 13:00 0,3 C 63 % 1023,5 hPa 0,0 l/m 8,6 km/h NW -5,9 C -2,0 C 20,9 km/h
26.01.2012 14:00 0,3 C 62 % 1023,5 hPa 0,0 l/m 8,1 km/h NW -6,2 C -1,5 C 18,9 km/h
26.01.2012 15:00 0,1 C 62 % 1023,7 hPa 0,0 l/m 7,3 km/h NW -6,3 C -0,9 C 18,5 km/h
26.01.2012 16:00 -0,1 C 63 % 1024,0 hPa 0,0 l/m 5,8 km/h W-NW -6,3 C -0,3 C 14,5 km/h
26.01.2012 17:00 -0,2 C 63 % 1024,1 hPa 0,0 l/m 6,0 km/h NW -6,3 C -0,3 C 17,7 km/h
26.01.2012 18:00 -0,2 C 63 % 1024,5 hPa 0,0 l/m 5,2 km/h N-NW -6,4 C -0,4 C 12,9 km/h
26.01.2012 19:00 -0,3 C 64 % 1024,8 hPa 0,0 l/m 4,5 km/h NO -6,2 C -0,4 C 14,1 km/h
26.01.2012 20:00 -0,5 C 66 % 1025,0 hPa 0,0 l/m 4,3 km/h N-NO -6,0 C -0,5 C 12,1 km/h
26.01.2012 21:00 -1,1 C 72 % 1025,1 hPa 0,0 l/m 1,8 km/h N-NO -5,4 C -1,1 C 8,4 km/h
26.01.2012 22:00 -1,1 C 73 % 1025,2 hPa 0,0 l/m 2,8 km/h N-NO -5,4 C -1,1 C 8,0 km/h
26.01.2012 23:00 -1,2 C 69 % 1025,5 hPa 0,0 l/m 2,0 km/h N-NO -6,1 C -1,2 C 6,8 km/h
27.01.2012 00:00 -1,3 C 67 % 1025,8 hPa 0,0 l/m 1,5 km/h N -6,7 C -1,3 C 6,0 km/h
27.01.2012 01:00 -1,5 C 70 % 1025,9 hPa 0,0 l/m 0,9 km/h N-NO -6,3 C -1,5 C 7,2 km/h
27.01.2012 02:00 -1,7 C 70 % 1026,3 hPa 0,0 l/m 1,9 km/h W-NW -6,5 C -1,7 C 7,6 km/h
27.01.2012 03:00 -1,9 C 70 % 1026,2 hPa 0,0 l/m 1,4 km/h N-NO -6,6 C -1,9 C 6,8 km/h
27.01.2012 04:00 -2,1 C 71 % 1026,2 hPa 0,0 l/m 0,1 km/h N -6,7 C -2,1 C 2,8 km/h
27.01.2012 05:00 -2,2 C 73 % 1026,5 hPa 0,0 l/m 0,0 km/h N -6,4 C -2,2 C 0,4 km/h
27.01.2012 06:00 -2,3 C 74 % 1026,8 hPa 0,0 l/m 0,1 km/h N -6,3 C -2,3 C 2,4 km/h
27.01.2012 07:00 -2,8 C 77 % 1027,5 hPa 0,0 l/m 0,4 km/h N -6,3 C -2,8 C 4,0 km/h
27.01.2012 08:00 -2,8 C 78 % 1027,8 hPa 0,0 l/m 0,2 km/h N -6,1 C -2,8 C 3,6 km/h
27.01.2012 09:00 -2,6 C 78 % 1028,2 hPa 0,0 l/m 0,2 km/h N -6,0 C -2,6 C 4,0 km/h
27.01.2012 10:00 -2,3 C 75 % 1028,4 hPa 0,0 l/m 0,7 km/h SO -6,1 C -2,3 C 6,0 km/h
27.01.2012 11:00 -1,2 C 70 % 1028,3 hPa 0,0 l/m 1,7 km/h N -5,9 C -1,2 C 10,5 km/h
27.01.2012 12:00 -0,7 C 68 % 1028,0 hPa 0,0 l/m 2,0 km/h N -5,9 C -0,7 C 8,9 km/h
27.01.2012 13:00 -0,1 C 67 % 1027,8 hPa 0,0 l/m 1,8 km/h N -5,5 C -0,1 C 10,1 km/h
27.01.2012 14:00 0,1 C 66 % 1027,6 hPa 0,0 l/m 2,4 km/h O -5,5 C 0,1 C 9,7 km/h
27.01.2012 15:00 0,1 C 67 % 1027,6 hPa 0,0 l/m 1,1 km/h O -5,3 C 0,1 C 8,8 km/h
27.01.2012 16:00 -0,9 C 73 % 1027,9 hPa 0,0 l/m 0,1 km/h N -5,2 C -0,9 C 1,6 km/h
27.01.2012 17:00 -1,7 C 76 % 1028,3 hPa 0,0 l/m 0,0 km/h N -5,4 C -1,7 C 1,2 km/h
27.01.2012 18:00 -2,5 C 79 % 1028,6 hPa 0,0 l/m 0,0 km/h N -5,7 C -2,5 C 0,0 km/h
27.01.2012 19:00 -3,7 C 82 % 1028,6 hPa 0,0 l/m 0,0 km/h N -6,3 C -3,7 C 0,0 km/h
27.01.2012 20:00 -4,3 C 84 % 1028,8 hPa 0,0 l/m 0,0 km/h N -6,5 C -4,3 C 0,0 km/h
27.01.2012 21:00 -4,9 C 85 % 1029,1 hPa 0,0 l/m 0,0 km/h N -7,0 C -4,9 C 0,0 km/h
27.01.2012 22:00 -5,1 C 85 % 1029,3 hPa 0,0 l/m 0,0 km/h N -7,3 C -5,1 C 0,0 km/h
27.01.2012 23:00 -5,7 C 85 % 1029,2 hPa 0,0 l/m 0,0 km/h N -7,9 C -5,7 C 0,0 km/h
28.01.2012 00:00 -6,3 C 84 % 1029,1 hPa 0,0 l/m 0,0 km/h N -8,5 C -6,3 C 0,0 km/h
28.01.2012 01:00 -6,7 C 84 % 1029,0 hPa 0,0 l/m 0,0 km/h N -8,9 C -6,7 C 0,0 km/h
28.01.2012 02:00 -6,9 C 84 % 1028,9 hPa 0,0 l/m 0,0 km/h N -9,2 C -6,9 C 0,0 km/h
28.01.2012 03:00 -7,2 C 85 % 1028,8 hPa 0,0 l/m 0,0 km/h N -9,4 C -7,2 C 0,0 km/h
28.01.2012 04:00 -7,6 C 85 % 1028,7 hPa 0,0 l/m 0,0 km/h N -9,6 C -7,6 C 0,0 km/h
28.01.2012 05:00 -7,8 C 85 % 1028,8 hPa 0,0 l/m 0,0 km/h N -9,8 C -7,8 C 0,0 km/h
28.01.2012 06:00 -8,0 C 85 % 1029,2 hPa 0,0 l/m 0,0 km/h N -10,0 C -8,0 C 0,0 km/h
28.01.2012 07:00 -7,8 C 85 % 1029,4 hPa 0,0 l/m 0,0 km/h N -9,9 C -7,8 C 0,0 km/h
28.01.2012 08:00 -6,5 C 85 % 1029,5 hPa 0,0 l/m 0,0 km/h N -8,6 C -6,5 C 0,4 km/h
28.01.2012 09:00 -2,5 C 80 % 1029,4 hPa 0,0 l/m 2,3 km/h SO -5,5 C -2,5 C 10,9 km/h
28.01.2012 10:00 -0,5 C 72 % 1029,5 hPa 0,0 l/m 6,6 km/h SO -5,0 C -0,8 C 24,1 km/h
28.01.2012 11:00 0,7 C 67 % 1029,4 hPa 0,0 l/m 8,3 km/h SO -4,8 C -1,1 C 26,5 km/h
28.01.2012 12:00 1,6 C 64 % 1028,9 hPa 0,0 l/m 8,9 km/h SO -4,5 C -0,7 C 26,1 km/h
28.01.2012 13:00 2,3 C 61 % 1028,5 hPa 0,0 l/m 8,2 km/h O-SO -4,4 C 0,7 C 25,8 km/h
28.01.2012 14:00 2,1 C 62 % 1028,5 hPa 0,0 l/m 7,9 km/h O -4,4 C 0,8 C 24,1 km/h
28.01.2012 15:00 1,6 C 65 % 1028,7 hPa 0,0 l/m 6,0 km/h O-SO -4,4 C 1,2 C 20,9 km/h
28.01.2012 16:00 0,9 C 68 % 1029,1 hPa 0,0 l/m 2,8 km/h SO -4,4 C 0,9 C 13,7 km/h
28.01.2012 17:00 -0,3 C 73 % 1029,5 hPa 0,0 l/m 0,8 km/h N -4,4 C -0,3 C 7,6 km/h
28.01.2012 18:00 -1,5 C 78 % 1029,9 hPa 0,0 l/m 0,1 km/h N -4,9 C -1,5 C 2,8 km/h
28.01.2012 19:00 -2,2 C 81 % 1030,2 hPa 0,0 l/m 0,0 km/h N -5,1 C -2,2 C 1,2 km/h
28.01.2012 20:00 -3,0 C 82 % 1030,1 hPa 0,0 l/m 0,0 km/h N -5,7 C -3,0 C 0,8 km/h
28.01.2012 21:00 -3,9 C 84 % 1029,9 hPa 0,0 l/m 0,0 km/h N -6,2 C -3,9 C 0,8 km/h
28.01.2012 22:00 -4,4 C 87 % 1029,9 hPa 0,0 l/m 0,0 km/h N -6,3 C -4,4 C 0,0 km/h
28.01.2012 23:00 -4,5 C 85 % 1030,1 hPa 0,0 l/m 0,1 km/h N -6,6 C -4,5 C 1,2 km/h
29.01.2012 00:00 -4,5 C 84 % 1030,0 hPa 0,0 l/m 0,2 km/h N -6,7 C -4,5 C 3,2 km/h
29.01.2012 01:00 -5,7 C 85 % 1030,0 hPa 0,0 l/m 0,0 km/h N -7,8 C -5,7 C 0,0 km/h
29.01.2012 02:00 -4,9 C 84 % 1029,9 hPa 0,0 l/m 0,0 km/h N -7,2 C -4,9 C 1,2 km/h
29.01.2012 03:00 -5,4 C 85 % 1029,8 hPa 0,0 l/m 0,0 km/h N -7,6 C -5,4 C 0,4 km/h
29.01.2012 04:00 -5,7 C 84 % 1029,9 hPa 0,0 l/m 0,0 km/h N -8,0 C -5,7 C 0,0 km/h
29.01.2012 05:00 -4,9 C 83 % 1029,9 hPa 0,0 l/m 0,0 km/h N -7,3 C -4,9 C 0,0 km/h
29.01.2012 06:00 -4,4 C 83 % 1030,0 hPa 0,0 l/m 0,0 km/h N -6,8 C -4,4 C 0,0 km/h
29.01.2012 07:00 -3,9 C 83 % 1030,2 hPa 0,0 l/m 0,0 km/h N -6,3 C -3,9 C 0,8 km/h
29.01.2012 08:00 -3,5 C 84 % 1030,5 hPa 0,0 l/m 0,2 km/h N -5,8 C -3,5 C 2,8 km/h
29.01.2012 09:00 -2,5 C 85 % 1030,6 hPa 0,0 l/m 2,4 km/h SO -4,7 C -2,5 C 8,9 km/h
29.01.2012 10:00 -1,8 C 84 % 1030,8 hPa 0,0 l/m 4,9 km/h SO -4,2 C -1,8 C 16,5 km/h
29.01.2012 11:00 -0,7 C 78 % 1030,8 hPa 0,0 l/m 7,7 km/h SO -4,2 C -2,5 C 20,5 km/h
29.01.2012 12:00 -0,1 C 73 % 1030,8 hPa 0,0 l/m 8,1 km/h SO -4,3 C -1,7 C 23,3 km/h
29.01.2012 13:00 0,2 C 70 % 1030,6 hPa 0,0 l/m 9,9 km/h SO -4,7 C -3,1 C 26,5 km/h
29.01.2012 14:00 -0,2 C 69 % 1030,8 hPa 0,0 l/m 11,0 km/h SO -5,2 C -4,4 C 25,7 km/h
29.01.2012 15:00 -0,7 C 72 % 1031,2 hPa 0,0 l/m 8,5 km/h SO -5,2 C -3,0 C 22,1 km/h
29.01.2012 16:00 -1,4 C 76 % 1031,5 hPa 0,0 l/m 7,4 km/h SO -5,1 C -2,5 C 20,5 km/h
29.01.2012 17:00 -2,0 C 78 % 1031,8 hPa 0,0 l/m 6,5 km/h SO -5,2 C -3,1 C 18,1 km/h
29.01.2012 18:00 -2,6 C 80 % 1032,1 hPa 0,0 l/m 3,9 km/h O-SO -5,5 C -2,6 C 11,7 km/h
29.01.2012 19:00 -2,9 C 81 % 1032,2 hPa 0,0 l/m 2,1 km/h O-SO -5,7 C -2,9 C 8,5 km/h
29.01.2012 20:00 -3,2 C 82 % 1032,3 hPa 0,0 l/m 1,5 km/h SO -5,9 C -3,2 C 6,4 km/h
29.01.2012 21:00 -2,9 C 80 % 1032,3 hPa 0,0 l/m 2,2 km/h SO -5,9 C -2,9 C 8,9 km/h
29.01.2012 22:00 -3,8 C 81 % 1032,3 hPa 0,0 l/m 1,0 km/h O-SO -6,6 C -3,8 C 5,2 km/h
29.01.2012 23:00 -4,3 C 83 % 1032,3 hPa 0,0 l/m 1,0 km/h O-SO -6,7 C -4,3 C 6,4 km/h
Min-Datum _ 28.01.12 23.01.12 23.01.12 - 24.01.12 - 28.01.12 28.01.12 24.01.12
_ Min-Zeit 06:45 11:30 00:00 - 04:00 - 06:00 06:00 04:00
Minimum _ -8,3 C 55 % 1006,1 hPa - 0,0 km/h - -10,2 C -8,1 C 0,0 km/h
Max-Datum _ 23.01.12 28.01.12 29.01.12 24.01.12 23.01.12 - 23.01.12 23.01.12 23.01.12
_ Max-Zeit 00:15 22:30 20:45 02:15 03:00 - 04:15 12:45 00:30
Maximum _ 8,6 C 92 % 1032,4 hPa 0,8 l/m 25,4 km/h
N
- 2,3 C 7,2 C 61,2 km/h
N
Durchschnitt _ 0,1 C 75 % 1023,3 hPa #3,1 l/m 5,3 km/h N -4,0 C -1,0 C 14,4 km/h